Time;durP1;ratioP1;P1;durP2;ratioP2;P2;SDS_P1;SDS_P2;PMS_P1;PMS_P2;Temp;Humidity;BMP_temperature;BMP_pressure;BME280_temperature;BME280_humidity;BME280_pressure;Samples;Min_cycle;Max_cycle;Signal;HPM_P1;HPM_P2
2021/04/16 00:00:38;;;;;;;8.53;6.00;;;-0.20;99.90;;;;;;4993869;28;20544;-76
2021/04/16 00:03:05;;;;;;;8.33;6.60;;;-0.20;99.90;;;;;;4993859;28;20646;-77
2021/04/16 00:05:32;;;;;;;9.77;6.37;;;-0.20;99.90;;;;;;4993796;28;20411;-76
2021/04/16 00:07:57;;;;;;;10.40;6.80;;;-0.30;99.90;;;;;;4993885;28;20849;-76
2021/04/16 00:10:31;;;;;;;12.20;7.33;;;-0.30;99.90;;;;;;4993822;28;20407;-76
2021/04/16 00:12:57;;;;;;;10.23;6.33;;;-0.30;99.90;;;;;;4993822;28;20610;-76
2021/04/16 00:15:25;;;;;;;10.63;7.30;;;-0.30;99.90;;;;;;4993496;28;20434;-76
2021/04/16 00:17:51;;;;;;;9.80;6.70;;;-0.40;99.90;;;;;;4993626;28;20223;-76
2021/04/16 00:20:20;;;;;;;10.00;6.13;;;0.20;99.90;;;;;;4993617;28;20416;-76
2021/04/16 00:22:45;;;;;;;11.17;7.30;;;-0.40;99.90;;;;;;4995576;28;20817;-76
2021/04/16 00:25:16;;;;;;;12.33;7.73;;;0.00;99.90;;;;;;4997233;28;20549;-77
2021/04/16 00:27:41;;;;;;;12.23;7.47;;;-0.40;99.90;;;;;;4997264;28;20190;-76
2021/04/16 00:30:09;;;;;;;9.93;6.93;;;-0.40;99.90;;;;;;4997232;28;20409;-76
2021/04/16 00:32:35;;;;;;;9.67;6.87;;;-0.40;99.90;;;;;;4997243;28;20661;-76
2021/04/16 00:35:02;;;;;;;9.57;6.27;;;;;;;;;;4997403;28;20747;-76
2021/04/16 00:37:27;;;;;;;10.17;5.97;;;-0.50;99.90;;;;;;4995855;28;20437;-76
2021/04/16 00:39:54;;;;;;;7.63;5.83;;;-0.50;99.90;;;;;;4995770;28;20421;-76
2021/04/16 00:42:19;;;;;;;11.30;6.20;;;-0.50;99.90;;;;;;5028742;28;20526;-76
2021/04/16 00:44:45;;;;;;;8.80;6.13;;;-0.50;99.90;;;;;;4996882;28;20473;-76
2021/04/16 00:47:14;;;;;;;10.57;5.67;;;-0.60;99.90;;;;;;4997183;28;20200;-76
2021/04/16 00:49:44;;;;;;;8.60;5.57;;;-0.60;99.90;;;;;;4995608;28;20196;-76
2021/04/16 00:52:11;;;;;;;9.27;5.47;;;-0.70;99.90;;;;;;4997170;28;20417;-76
2021/04/16 00:54:41;;;;;;;8.63;5.70;;;-0.70;99.90;;;;;;5028247;28;20407;-76
2021/04/16 00:57:10;;;;;;;6.23;4.77;;;-0.90;99.90;;;;;;4996764;28;20437;-76
2021/04/16 00:59:40;;;;;;;8.43;5.80;;;-0.80;99.90;;;;;;4996699;28;20415;-76
2021/04/16 01:02:06;;;;;;;8.87;5.90;;;-0.90;99.90;;;;;;4996678;28;20510;-76
2021/04/16 01:04:32;;;;;;;8.30;5.00;;;-0.90;99.90;;;;;;4996623;28;20503;-76
2021/04/16 01:07:00;;;;;;;9.27;5.50;;;-1.00;99.90;;;;;;4996606;28;20425;-76
2021/04/16 01:09:27;;;;;;;5.43;4.63;;;-1.00;99.90;;;;;;4996580;28;20458;-76
2021/04/16 01:11:53;;;;;;;7.33;4.90;;;-1.00;99.90;;;;;;4996595;28;20809;-76
2021/04/16 01:14:19;;;;;;;7.30;5.23;;;-1.10;99.90;;;;;;4996565;28;20900;-76
2021/04/16 01:16:46;;;;;;;9.30;4.80;;;-1.10;99.90;;;;;;4995197;28;20178;-76
2021/04/16 01:19:23;;;;;;;7.23;4.67;;;-1.10;99.90;;;;;;4996275;28;20206;-76
2021/04/16 01:22:00;;;;;;;6.20;4.33;;;-1.10;99.90;;;;;;4995103;28;20824;-76
2021/04/16 01:24:27;;;;;;;5.97;4.50;;;-1.20;99.90;;;;;;4996188;28;20411;-76
2021/04/16 01:26:53;;;;;;;7.13;4.90;;;-1.20;99.90;;;;;;4996250;28;20422;-77
2021/04/16 01:29:19;;;;;;;8.80;5.27;;;-1.20;99.90;;;;;;4996022;28;20462;-76
2021/04/16 01:31:48;;;;;;;5.83;4.33;;;-1.20;99.90;;;;;;4996164;28;20477;-76
2021/04/16 01:34:20;;;;;;;5.43;4.70;;;-1.30;99.90;;;;;;4995431;28;20423;-76
2021/04/16 01:36:46;;;;;;;8.87;5.47;;;-1.30;99.90;;;;;;4995975;28;20413;-76
2021/04/16 01:39:12;;;;;;;10.77;4.60;;;-1.30;99.90;;;;;;4994649;28;20439;-76
2021/04/16 01:41:38;;;;;;;6.57;4.90;;;-1.30;99.90;;;;;;4994756;28;20496;-76
2021/04/16 01:44:13;;;;;;;6.13;4.40;;;-1.40;99.90;;;;;;4995693;28;20259;-76
2021/04/16 01:47:07;;;;;;;7.37;5.13;;;-1.30;99.90;;;;;;4994590;28;20415;-76
2021/04/16 01:49:36;;;;;;;7.57;4.30;;;-1.30;99.90;;;;;;4994684;28;20472;-76
2021/04/16 01:52:06;;;;;;;5.30;4.20;;;-1.20;99.90;;;;;;4995746;28;20415;-76
2021/04/16 01:54:35;;;;;;;10.07;5.13;;;-1.30;99.90;;;;;;4995696;28;20403;-76
2021/04/16 01:57:06;;;;;;;5.87;4.67;;;-1.40;99.90;;;;;;4995466;28;20438;-76
2021/04/16 01:59:35;;;;;;;6.63;4.97;;;-1.40;99.90;;;;;;4995595;28;20407;-76
2021/04/16 02:02:02;;;;;;;8.80;4.63;;;-1.40;99.90;;;;;;4995805;28;20420;-76
2021/04/16 02:04:27;;;;;;;5.80;4.13;;;-1.50;99.90;;;;;;4995589;28;20430;-76
2021/04/16 02:06:53;;;;;;;6.27;4.27;;;-1.60;99.90;;;;;;4995382;28;20412;-77
2021/04/16 02:09:25;;;;;;;4.70;4.20;;;-1.60;99.90;;;;;;4995326;28;20196;-76
2021/04/16 02:11:51;;;;;;;6.13;4.20;;;-1.60;99.90;;;;;;4995668;28;20176;-76
2021/04/16 02:14:24;;;;;;;7.07;4.40;;;-1.60;99.90;;;;;;4995160;28;20465;-76
2021/04/16 02:16:53;;;;;;;5.13;4.13;;;-1.60;99.90;;;;;;4995495;28;20494;-77
2021/04/16 02:19:19;;;;;;;4.83;4.33;;;-1.70;99.90;;;;;;4995133;28;20548;-76
2021/04/16 02:21:45;;;;;;;6.87;4.60;;;-1.70;99.90;;;;;;4995151;28;20454;-76
2021/04/16 02:24:11;;;;;;;7.00;5.00;;;-1.70;99.90;;;;;;4995242;28;20832;-76
2021/04/16 02:26:37;;;;;;;5.40;4.80;;;-1.70;99.90;;;;;;4995049;28;20212;-76
2021/04/16 02:29:05;;;;;;;5.87;4.37;;;-1.70;99.90;;;;;;4994978;28;20438;-76
2021/04/16 02:31:31;;;;;;;6.27;4.50;;;-1.80;99.90;;;;;;4994993;28;20966;-76
2021/04/16 02:33:57;;;;;;;5.87;4.80;;;-1.70;99.90;;;;;;4993793;28;20421;-76
2021/04/16 02:36:24;;;;;;;6.43;4.67;;;-1.80;99.90;;;;;;4994761;28;20432;-76
2021/04/16 02:38:54;;;;;;;7.87;4.60;;;-1.70;99.90;;;;;;4994772;28;20297;-76
2021/04/16 02:41:21;;;;;;;6.10;4.77;;;-1.80;99.90;;;;;;4995023;28;20491;-76
2021/04/16 02:43:47;;;;;;;8.23;4.60;;;-1.80;99.90;;;;;;4995015;28;20410;-76
2021/04/16 02:46:13;;;;;;;7.37;4.73;;;-1.80;99.90;;;;;;4993748;28;20442;-76
2021/04/16 02:48:39;;;;;;;5.20;4.30;;;-1.80;99.90;;;;;;4994619;28;20441;-76
2021/04/16 02:51:05;;;;;;;7.20;4.40;;;-1.80;99.90;;;;;;4994949;28;20186;-76
2021/04/16 02:53:30;;;;;;;6.73;5.20;;;-1.90;99.90;;;;;;4994833;28;20193;-76
2021/04/16 02:55:56;;;;;;;6.73;4.97;;;-1.90;99.90;;;;;;4994388;28;20290;-76
2021/04/16 02:58:22;;;;;;;11.57;5.10;;;-1.90;99.90;;;;;;4994324;28;20249;-76
2021/04/16 03:00:48;;;;;;;7.63;5.63;;;-2.00;99.90;;;;;;4994488;28;20532;-76
2021/04/16 03:03:13;;;;;;;11.27;5.67;;;-1.90;99.90;;;;;;4994501;28;20251;-76
2021/04/16 03:05:39;;;;;;;8.00;5.63;;;-2.00;99.90;;;;;;5025910;28;20634;-76
2021/04/16 03:08:05;;;;;;;8.80;5.60;;;-2.00;99.90;;;;;;4994353;28;20202;-76
2021/04/16 03:10:33;;;;;;;7.60;5.40;;;-1.40;99.90;;;;;;4994606;28;20585;-76
2021/04/16 03:12:59;;;;;;;7.30;5.90;;;-2.10;99.90;;;;;;5025837;28;20186;-76
2021/04/16 03:15:25;;;;;;;8.20;5.63;;;-2.10;99.90;;;;;;4994179;28;20441;-76
2021/04/16 03:17:51;;;;;;;8.93;5.87;;;-2.20;99.90;;;;;;4992875;28;20206;-76
2021/04/16 03:20:20;;;;;;;9.80;6.27;;;-2.20;99.90;;;;;;4992984;28;20263;-76
2021/04/16 03:22:45;;;;;;;9.67;6.50;;;-2.20;99.90;;;;;;4992987;28;20461;-76
2021/04/16 03:25:13;;;;;;;11.50;7.07;;;-2.20;99.90;;;;;;4992820;28;20464;-76
2021/04/16 03:27:40;;;;;;;10.03;6.60;;;-2.20;99.90;;;;;;4992845;28;20202;-76
2021/04/16 03:30:08;;;;;;;9.53;6.33;;;-2.20;99.90;;;;;;4992884;28;20422;-76
2021/04/16 03:32:34;;;;;;;8.23;6.07;;;-2.20;99.90;;;;;;4992782;28;20426;-76
2021/04/16 03:34:59;;;;;;;9.47;6.57;;;-2.20;99.90;;;;;;4993995;28;20461;-76
2021/04/16 03:37:25;;;;;;;9.70;6.70;;;-2.30;99.90;;;;;;4992721;28;20203;-76
2021/04/16 03:39:51;;;;;;;8.00;6.00;;;-2.30;99.90;;;;;;4993959;28;20210;-76
2021/04/16 03:42:17;;;;;;;7.97;6.17;;;-2.40;99.90;;;;;;4992696;28;20175;-76
2021/04/16 03:44:43;;;;;;;8.93;6.53;;;-2.30;99.90;;;;;;4994060;28;20267;-76
2021/04/16 03:47:08;;;;;;;12.60;6.73;;;-2.40;99.90;;;;;;4994405;28;20179;-76
2021/04/16 03:49:34;;;;;;;14.60;6.40;;;-2.40;99.90;;;;;;4994291;28;20226;-76
2021/04/16 03:52:02;;;;;;;13.70;6.93;;;-2.40;99.90;;;;;;4994505;28;20175;-76
2021/04/16 03:54:29;;;;;;;10.73;6.23;;;-2.40;99.90;;;;;;4994568;28;20207;-76
2021/04/16 03:56:55;;;;;;;10.97;6.07;;;-2.50;99.90;;;;;;4994701;28;20442;-76
2021/04/16 03:59:22;;;;;;;9.07;6.47;;;-2.50;99.90;;;;;;4997541;28;20473;-76
2021/04/16 04:01:49;;;;;;;9.60;6.13;;;-2.50;99.90;;;;;;4997374;28;20422;-76
2021/04/16 04:04:16;;;;;;;9.20;5.87;;;-2.50;99.90;;;;;;4997230;28;20476;-76
2021/04/16 04:06:42;;;;;;;10.13;6.67;;;-2.60;99.90;;;;;;4997083;28;20418;-76
2021/04/16 04:09:08;;;;;;;9.30;5.80;;;-2.60;99.90;;;;;;4997224;28;20446;-77
2021/04/16 04:11:35;;;;;;;9.70;6.57;;;-2.60;99.90;;;;;;4997956;28;20483;-76
2021/04/16 04:14:02;;;;;;;12.93;6.87;;;-2.60;99.90;;;;;;4996788;28;20422;-76
2021/04/16 04:16:29;;;;;;;10.47;6.63;;;-2.60;99.90;;;;;;4998129;28;20444;-76
2021/04/16 04:18:55;;;;;;;9.07;6.03;;;-2.60;99.90;;;;;;4997816;28;20462;-76
2021/04/16 04:21:21;;;;;;;10.73;6.83;;;-2.60;99.90;;;;;;5029218;28;20421;-75
2021/04/16 04:23:47;;;;;;;7.93;6.17;;;-2.60;99.90;;;;;;4997948;28;20419;-76
2021/04/16 04:26:13;;;;;;;12.47;7.00;;;-2.70;99.90;;;;;;4996187;28;20937;-76
2021/04/16 04:28:38;;;;;;;10.13;6.63;;;-2.70;99.90;;;;;;4997687;28;20612;-76
2021/04/16 04:31:04;;;;;;;8.63;6.33;;;-2.70;99.90;;;;;;4997552;28;20633;-76
2021/04/16 04:33:29;;;;;;;9.10;5.83;;;-2.70;99.90;;;;;;4997480;28;20179;-76
2021/04/16 04:35:55;;;;;;;9.53;6.20;;;-2.70;99.90;;;;;;4997151;28;20180;-76
2021/04/16 04:38:21;;;;;;;10.57;5.97;;;-2.70;99.90;;;;;;4997161;28;20571;-77
2021/04/16 04:40:46;;;;;;;8.30;6.20;;;-2.70;99.90;;;;;;4997437;28;20750;-76
2021/04/16 04:43:13;;;;;;;8.63;6.20;;;-2.70;99.90;;;;;;4996041;28;20188;-76
2021/04/16 04:45:38;;;;;;;9.53;6.10;;;-2.70;99.90;;;;;;4998216;28;20187;-76
2021/04/16 04:48:05;;;;;;;11.13;6.03;;;-2.70;99.90;;;;;;4997233;28;20793;-76
2021/04/16 04:50:31;;;;;;;10.83;6.90;;;-2.70;99.90;;;;;;4997338;28;20241;-76
2021/04/16 04:52:57;;;;;;;13.80;7.17;;;-2.70;99.90;;;;;;4996842;28;20421;-76
2021/04/16 04:55:32;;;;;;;18.33;9.97;;;-2.60;99.90;;;;;;4996774;28;20415;-76
2021/04/16 04:57:58;;;;;;;20.57;10.87;;;-2.60;99.90;;;;;;4997061;28;20234;-76
2021/04/16 05:00:26;;;;;;;18.87;10.13;;;-2.60;99.90;;;;;;4995375;28;20513;-76
2021/04/16 05:02:52;;;;;;;12.50;8.10;;;-2.50;99.90;;;;;;4995500;28;20241;-76
2021/04/16 05:05:19;;;;;;;12.13;7.80;;;-2.50;99.90;;;;;;4996544;28;20406;-76
2021/04/16 05:07:45;;;;;;;9.87;6.23;;;-2.50;99.90;;;;;;4996212;28;20252;-76
2021/04/16 05:10:12;;;;;;;11.43;7.77;;;-2.40;99.90;;;;;;4992667;28;20441;-76
2021/04/16 05:12:38;;;;;;;12.30;7.70;;;-2.40;99.90;;;;;;4997189;28;20182;-76
2021/04/16 05:15:05;;;;;;;10.23;7.70;;;-2.40;99.90;;;;;;4995075;28;20426;-75
2021/04/16 05:17:30;;;;;;;11.83;7.53;;;-2.30;99.90;;;;;;4996392;28;20286;-76
2021/04/16 05:19:56;;;;;;;11.30;6.60;;;-2.30;99.90;;;;;;4996638;28;20540;-76
2021/04/16 05:22:22;;;;;;;9.03;6.60;;;-2.20;99.90;;;;;;4996401;28;20179;-76
2021/04/16 05:24:47;;;;;;;9.10;7.10;;;-2.20;99.90;;;;;;4996143;28;20541;-76
2021/04/16 05:27:16;;;;;;;9.77;7.00;;;-2.20;99.90;;;;;;4996186;28;20203;-76
2021/04/16 05:29:42;;;;;;;8.10;6.67;;;-2.20;99.90;;;;;;4995020;28;20584;-76
2021/04/16 05:32:08;;;;;;;11.63;6.87;;;-2.20;99.90;;;;;;4996155;28;20420;-76
2021/04/16 05:34:34;;;;;;;13.10;6.93;;;-2.10;99.90;;;;;;4994584;28;20185;-77
2021/04/16 05:37:02;;;;;;;24.23;6.37;;;-2.00;99.90;;;;;;4993870;28;20919;-76
2021/04/16 05:39:28;;;;;;;9.93;6.73;;;-1.70;99.90;;;;;;4995469;28;20209;-76
2021/04/16 05:41:54;;;;;;;10.17;7.10;;;-2.00;99.90;;;;;;4995388;28;20806;-76
2021/04/16 05:44:20;;;;;;;11.20;7.93;;;-1.90;99.90;;;;;;4995301;28;20522;-76
2021/04/16 05:46:45;;;;;;;10.83;7.87;;;-1.90;99.90;;;;;;4995360;28;20204;-77
2021/04/16 05:49:11;;;;;;;10.63;7.63;;;-1.80;99.90;;;;;;4996000;28;20274;-76
2021/04/16 05:51:37;;;;;;;11.23;8.07;;;-1.70;99.90;;;;;;4996169;28;20242;-76
2021/04/16 05:54:04;;;;;;;12.63;7.83;;;-1.60;99.90;;;;;;4996011;28;20183;-77
2021/04/16 05:56:30;;;;;;;10.77;6.63;;;-1.50;99.90;;;;;;4994279;28;20450;-77
2021/04/16 05:58:56;;;;;;;8.57;6.47;;;-1.40;99.90;;;;;;4994349;28;21018;-77
2021/04/16 06:01:22;;;;;;;10.80;6.30;;;-1.30;99.90;;;;;;4995561;28;20673;-77
2021/04/16 06:03:48;;;;;;;7.83;6.00;;;-1.30;99.90;;;;;;4995664;28;20422;-76
2021/04/16 06:06:14;;;;;;;8.17;6.13;;;-1.20;99.90;;;;;;4994148;28;20180;-77
2021/04/16 06:08:41;;;;;;;8.17;6.07;;;-1.10;99.90;;;;;;4995455;28;20438;-77
2021/04/16 06:11:07;;;;;;;8.47;5.90;;;-0.60;99.90;;;;;;4995505;28;20191;-77
2021/04/16 06:13:35;;;;;;;7.40;5.77;;;-1.00;99.90;;;;;;4995725;28;20453;-76
2021/04/16 06:16:02;;;;;;;8.30;6.17;;;-0.90;99.90;;;;;;4995278;28;20794;-77
2021/04/16 06:18:28;;;;;;;9.47;5.73;;;-0.90;99.90;;;;;;4995152;28;20489;-77
2021/04/16 06:20:53;;;;;;;7.83;6.40;;;-0.80;99.90;;;;;;4993913;28;20925;-77
2021/04/16 06:23:19;;;;;;;7.03;5.30;;;-0.80;99.90;;;;;;4995225;28;20274;-77
2021/04/16 06:25:45;;;;;;;6.40;5.30;;;-0.70;99.90;;;;;;4994978;28;20222;-77
2021/04/16 06:28:12;;;;;;;6.63;5.57;;;-0.60;99.90;;;;;;4995069;28;20257;-77
2021/04/16 06:30:39;;;;;;;7.80;5.90;;;-0.60;99.90;;;;;;4993904;28;20266;-77
2021/04/16 06:33:18;;;;;;;6.13;5.33;;;-0.40;99.90;;;;;;4995062;28;20787;-77
2021/04/16 06:35:59;;;;;;;6.97;5.50;;;-0.30;99.90;;;;;;4993661;28;20422;-77
2021/04/16 06:38:39;;;;;;;6.50;5.80;;;-0.20;99.90;;;;;;4993633;28;20462;-77
2021/04/16 06:41:31;;;;;;;6.57;4.93;;;-0.10;99.90;;;;;;4994936;28;20392;-77
2021/04/16 06:44:01;;;;;;;8.00;5.87;;;0.10;99.90;;;;;;4993698;28;20429;-78
2021/04/16 06:46:40;;;;;;;7.17;5.93;;;0.30;99.90;;;;;;4993633;28;20453;-77
2021/04/16 06:49:33;;;;;;;9.23;6.27;;;0.40;99.90;;;;;;4994760;28;20956;-77
2021/04/16 06:51:59;;;;;;;9.30;5.80;;;0.50;99.90;;;;;;4993785;28;20477;-77
2021/04/16 06:54:28;;;;;;;7.87;5.83;;;0.70;99.90;;;;;;4994507;28;20415;-77
2021/04/16 06:56:56;;;;;;;7.47;6.00;;;0.90;99.90;;;;;;4994497;28;20238;-77
2021/04/16 06:59:26;;;;;;;7.50;6.33;;;1.00;99.90;;;;;;4993344;28;20462;-77
2021/04/16 07:01:59;;;;;;;8.30;6.37;;;1.20;99.90;;;;;;4993583;28;20415;-77
2021/04/16 07:04:54;;;;;;;10.10;6.90;;;1.30;99.90;;;;;;4994549;28;20742;-78
2021/04/16 07:07:29;;;;;;;7.93;6.77;;;1.30;99.90;;;;;;4994849;28;20434;-77
2021/04/16 07:10:03;;;;;;;7.63;6.37;;;1.50;99.90;;;;;;4993329;28;20414;-78
2021/04/16 07:12:29;;;;;;;6.93;6.23;;;1.70;99.90;;;;;;4994933;28;20885;-77
2021/04/16 07:14:57;;;;;;;7.57;6.20;;;1.80;99.90;;;;;;4994519;28;20407;-77
2021/04/16 07:17:39;;;;;;;10.43;6.67;;;2.00;99.90;;;;;;4994654;28;20505;-78
2021/04/16 07:20:06;;;;;;;8.07;6.73;;;2.00;99.90;;;;;;4993083;28;20513;-78
2021/04/16 07:22:41;;;;;;;6.60;5.90;;;2.10;99.90;;;;;;4994284;28;20791;-77
2021/04/16 07:25:22;;;;;;;8.43;6.67;;;2.40;99.90;;;;;;4994101;28;20505;-77
2021/04/16 07:27:56;;;;;;;6.20;5.57;;;2.60;99.90;;;;;;4994410;28;20429;-77
2021/04/16 07:30:40;;;;;;;10.67;6.63;;;2.70;99.90;;;;;;4993125;28;20413;-77
2021/04/16 07:33:41;;;;;;;8.40;6.30;;;3.00;99.90;;;;;;4993971;28;20398;-77
2021/04/16 07:36:28;;;;;;;6.90;6.03;;;3.20;99.90;;;;;;4994889;28;20421;-77
2021/04/16 07:39:06;;;;;;;6.90;6.10;;;4.50;99.90;;;;;;4994708;28;20513;-77
2021/04/16 07:41:35;;;;;;;7.47;6.60;;;5.30;99.90;;;;;;4995016;28;20418;-77
2021/04/16 07:44:04;;;;;;;9.17;6.57;;;5.70;99.90;;;;;;4994698;28;20419;-77
2021/04/16 07:46:29;;;;;;;10.03;6.00;;;5.80;99.90;;;;;;4995282;28;20410;-77
2021/04/16 07:49:23;;;;;;;8.40;6.50;;;5.70;99.90;;;;;;4995122;28;20206;-78
2021/04/16 07:51:53;;;;;;;7.90;7.10;;;6.40;99.90;;;;;;4994339;28;20156;-78
2021/04/16 07:54:23;;;;;;;6.47;5.80;;;6.90;99.90;;;;;;4994830;28;20171;-78
2021/04/16 07:57:08;;;;;;;7.10;6.00;;;8.00;99.90;;;;;;4994416;28;20189;-78
2021/04/16 07:59:54;;;;;;;11.03;5.93;;;8.60;99.90;;;;;;4995231;28;20199;-76
2021/04/16 08:02:29;;;;;;;9.87;6.90;;;7.60;99.90;;;;;;4994018;28;20176;-77
2021/04/16 08:04:55;;;;;;;9.33;6.03;;;7.40;99.90;;;;;;4994875;28;20179;-79
2021/04/16 08:07:31;;;;;;;7.10;6.40;;;6.60;99.90;;;;;;4993892;28;20239;-76
2021/04/16 08:09:59;;;;;;;9.13;6.23;;;5.60;99.90;;;;;;4992649;28;20183;-76
2021/04/16 08:12:27;;;;;;;7.13;6.43;;;6.30;99.90;;;;;;4993872;28;20205;-76
2021/04/16 08:15:12;;;;;;;7.80;6.00;;;6.00;99.90;;;;;;5025118;28;20655;-76
2021/04/16 08:17:40;;;;;;;8.20;7.17;;;6.00;99.90;;;;;;4993841;28;20204;-76
2021/04/16 08:20:22;;;;;;;7.50;6.60;;;5.40;99.90;;;;;;4994067;28;20200;-77
2021/04/16 08:22:49;;;;;;;9.27;6.97;;;5.10;99.90;;;;;;4995193;28;20179;-77
2021/04/16 08:25:19;;;;;;;7.43;6.63;;;6.70;99.90;;;;;;4992933;28;20179;-78
2021/04/16 08:28:05;;;;;;;7.30;6.60;;;7.30;99.90;;;;;;4994739;28;20557;-78
2021/04/16 08:30:58;;;;;;;7.73;6.13;;;6.90;99.90;;;;;;4994649;28;20163;-78
2021/04/16 08:33:44;;;;;;;6.70;6.00;;;6.30;99.90;;;;;;4993472;28;20167;-77
2021/04/16 08:36:26;;;;;;;6.43;5.80;;;7.70;99.90;;;;;;4992428;28;20213;-77
2021/04/16 08:39:16;;;;;;;5.80;5.30;;;9.10;99.90;;;;;;4991696;28;20223;-77
2021/04/16 08:41:47;;;;;;;6.27;5.67;;;8.80;96.20;;;;;;4991565;28;20168;-77
2021/04/16 08:44:14;;;;;;;6.30;5.70;;;7.60;96.90;;;;;;4994970;28;20539;-77
2021/04/16 08:46:51;;;;;;;5.70;4.97;;;6.80;98.70;;;;;;4996405;28;20197;-77
2021/04/16 08:49:24;;;;;;;6.03;5.43;;;6.10;99.20;;;;;;4996354;28;20236;-77
2021/04/16 08:51:54;;;;;;;5.50;5.00;;;6.40;99.90;;;;;;4996407;28;20210;-77
2021/04/16 08:54:33;;;;;;;6.13;5.53;;;6.10;99.70;;;;;;4996516;28;20168;-77
2021/04/16 08:57:05;;;;;;;5.43;4.93;;;6.50;99.90;;;;;;4996041;28;20184;-77
2021/04/16 08:59:36;;;;;;;6.30;5.70;;;6.60;99.60;;;;;;4996170;28;20192;-77
2021/04/16 09:02:32;;;;;;;4.40;4.00;;;5.90;99.50;;;;;;4996171;28;20244;-77
2021/04/16 09:05:14;;;;;;;9.17;5.20;;;5.00;99.50;;;;;;4993896;28;20190;-77
2021/04/16 09:07:46;;;;;;;6.30;5.40;;;4.70;99.90;;;;;;4996105;28;20241;-77
2021/04/16 09:10:14;;;;;;;5.87;5.37;;;4.70;99.90;;;;;;4995957;28;20254;-77
2021/04/16 09:12:40;;;;;;;5.20;4.53;;;5.20;99.90;;;;;;4994598;28;20188;-77
2021/04/16 09:15:21;;;;;;;5.77;5.20;;;6.50;99.90;;;;;;4995893;28;20171;-77
2021/04/16 09:17:53;;;;;;;8.20;5.03;;;6.40;99.90;;;;;;4994597;28;20199;-77
2021/04/16 09:20:24;;;;;;;5.20;4.70;;;6.50;99.10;;;;;;4994847;28;20212;-79
2021/04/16 09:22:55;;;;;;;5.30;4.80;;;6.40;99.80;;;;;;4996136;28;20273;-77
2021/04/16 09:25:29;;;;;;;5.33;4.80;;;7.00;99.90;;;;;;4996192;28;20164;-77
2021/04/16 09:28:16;;;;;;;4.83;4.43;;;6.80;97.40;;;;;;4996005;28;20191;-77
2021/04/16 09:30:42;;;;;;;4.80;4.40;;;6.60;98.20;;;;;;4987687;28;20213;-77
2021/04/16 09:33:41;;;;;;;5.73;4.33;;;7.40;99.50;;;;;;4995135;28;20175;-78
2021/04/16 09:36:08;;;;;;;4.63;4.23;;;8.30;99.90;;;;;;4996293;28;20187;-78
2021/04/16 09:38:51;;;;;;;4.30;3.70;;;9.20;95.90;;;;;;4995399;28;20229;-78
2021/04/16 09:41:20;;;;;;;5.07;4.07;;;8.90;96.40;;;;;;4996370;28;20160;-78
2021/04/16 09:43:53;;;;;;;4.67;4.27;;;9.20;93.30;;;;;;4995768;28;20675;-77
2021/04/16 09:46:31;;;;;;;5.47;3.80;;;9.30;92.20;;;;;;4995672;28;20163;-77
2021/04/16 09:49:02;;;;;;;4.63;4.10;;;9.30;91.60;;;;;;4996031;28;20587;-76
2021/04/16 09:51:36;;;;;;;4.07;3.67;;;9.50;94.30;;;;;;4994424;28;20198;-77
2021/04/16 09:54:07;;;;;;;4.30;3.90;;;9.80;92.40;;;;;;4995118;28;20270;-77
2021/04/16 09:56:38;;;;;;;4.60;3.80;;;9.80;90.40;;;;;;4995520;28;20225;-76
2021/04/16 09:59:03;;;;;;;4.43;4.03;;;9.00;88.10;;;;;;4995385;28;20279;-76
2021/04/16 10:01:29;;;;;;;5.13;4.20;;;8.00;87.20;;;;;;4995764;28;20176;-77
2021/04/16 10:04:08;;;;;;;4.00;3.70;;;8.10;88.80;;;;;;4997132;28;20171;-78
2021/04/16 10:06:40;;;;;;;4.70;4.30;;;8.10;90.30;;;;;;4996226;28;20233;-77
2021/04/16 10:09:22;;;;;;;7.13;4.33;;;7.80;89.60;;;;;;4996528;28;20196;-78
2021/04/16 10:11:59;;;;;;;4.20;3.80;;;6.90;91.00;;;;;;4996000;28;20171;-77
2021/04/16 10:14:25;;;;;;;4.33;3.97;;;6.40;90.80;;;;;;4995541;28;20179;-78
2021/04/16 10:17:01;;;;;;;5.03;4.00;;;6.10;91.20;;;;;;4996253;28;20638;-77
2021/04/16 10:19:34;;;;;;;4.73;3.83;;;6.10;92.60;;;;;;5026981;28;20203;-77
2021/04/16 10:22:18;;;;;;;4.47;4.07;;;5.80;92.20;;;;;;4995670;28;20225;-77
2021/04/16 10:31:24;;;;;;;5.77;3.93;;;7.20;90.70;;;;;;4995397;28;20537;-77
2021/04/16 12:38:37;;;;;;;4.43;3.33;;;12.30;64.10;;;;;;4998204;28;20213;-77
2021/04/16 12:41:18;;;;;;;3.50;3.20;;;12.00;65.30;;;;;;4998674;28;20152;-77
2021/04/16 12:43:45;;;;;;;6.93;3.40;;;11.10;61.80;;;;;;4997970;28;20195;-78
2021/04/16 12:46:16;;;;;;;3.63;3.23;;;11.10;65.80;;;;;;4998128;28;20179;-78
2021/04/16 12:48:42;;;;;;;4.93;3.53;;;12.30;63.10;;;;;;4998740;28;20218;-77
2021/04/16 12:51:09;;;;;;;3.40;3.10;;;13.50;63.50;;;;;;4997358;28;20250;-77
2021/04/16 12:53:35;;;;;;;4.00;3.60;;;14.80;61.10;;;;;;4995807;28;20689;-77
2021/04/16 12:56:01;;;;;;;3.63;3.33;;;14.80;56.40;;;;;;4996921;28;20274;-76
2021/04/16 12:58:35;;;;;;;3.63;3.33;;;13.50;58.40;;;;;;4997033;28;20246;-77
2021/04/16 13:01:02;;;;;;;3.50;3.20;;;11.90;57.90;;;;;;4995703;28;20178;-77
2021/04/16 13:03:34;;;;;;;4.73;4.03;;;10.50;61.10;;;;;;5000657;28;20612;-77
2021/04/16 13:06:00;;;;;;;5.17;3.37;;;10.40;61.90;;;;;;5015673;28;20242;-77
2021/04/16 13:08:27;;;;;;;5.07;3.57;;;11.40;60.50;;;;;;5015110;28;20648;-77
2021/04/16 13:10:53;;;;;;;5.50;4.13;;;13.00;60.80;;;;;;5016276;28;20203;-75
2021/04/16 13:13:19;;;;;;;4.20;3.40;;;11.90;57.60;;;;;;5014648;28;20273;-74
2021/04/16 13:15:45;;;;;;;11.70;5.87;;;11.00;62.10;;;;;;5015794;28;20173;-77
2021/04/16 13:18:30;;;;;;;4.23;3.83;;;9.90;62.60;;;;;;5014739;28;20195;-77
2021/04/16 13:20:56;;;;;;;6.33;3.60;;;9.00;64.40;;;;;;5014697;28;20168;-77
2021/04/16 13:23:21;;;;;;;4.30;3.63;;;9.90;70.50;;;;;;5014670;28;20641;-77
2021/04/16 13:25:47;;;;;;;4.67;3.70;;;11.50;63.40;;;;;;5015742;28;20173;-79
2021/04/16 13:28:13;;;;;;;6.27;3.20;;;12.00;59.90;;;;;;5016862;28;20572;-76
2021/04/16 13:30:39;;;;;;;4.07;3.30;;;10.10;63.20;;;;;;5015710;28;20629;-76
2021/04/16 13:33:12;;;;;;;7.03;3.50;;;9.20;64.90;;;;;;5016516;28;20172;-77
2021/04/16 13:35:44;;;;;;;3.73;3.23;;;8.70;69.10;;;;;;5014299;28;20189;-76
2021/04/16 13:38:19;;;;;;;5.37;3.40;;;9.50;68.80;;;;;;5015755;28;20202;-76
2021/04/16 13:40:45;;;;;;;3.57;3.20;;;11.10;65.20;;;;;;5016160;28;20175;-77
2021/04/16 13:43:12;;;;;;;3.87;3.57;;;12.50;61.60;;;;;;5015523;28;20179;-76
2021/04/16 13:45:38;;;;;;;3.33;3.03;;;13.40;56.20;;;;;;5014580;28;20179;-77
2021/04/16 13:48:05;;;;;;;3.33;3.03;;;13.70;56.40;;;;;;5015304;28;20234;-77
2021/04/16 13:50:32;;;;;;;5.17;3.60;;;13.30;58.10;;;;;;5015356;28;20598;-77
2021/04/16 13:52:57;;;;;;;6.63;3.73;;;13.20;56.40;;;;;;5015369;28;20176;-77
2021/04/16 13:55:27;;;;;;;4.63;3.53;;;14.00;57.80;;;;;;5030476;28;20184;-77
2021/04/16 13:57:53;;;;;;;5.37;3.27;;;14.30;54.50;;;;;;5013771;28;20209;-77
2021/04/16 14:00:25;;;;;;;4.67;3.80;;;12.70;55.40;;;;;;5015403;28;20180;-77
2021/04/16 14:03:14;;;;;;;3.77;3.47;;;11.30;57.80;;;;;;5015470;28;20176;-77
2021/04/16 14:05:48;;;;;;;4.17;3.77;;;11.10;59.00;;;;;;5015737;28;20184;-77
2021/04/16 14:08:30;;;;;;;3.67;3.37;;;11.90;59.20;;;;;;5014350;28;20213;-77
2021/04/16 14:10:56;;;;;;;3.77;3.37;;;12.90;58.10;;;;;;5014612;28;20170;-77
2021/04/16 14:13:22;;;;;;;3.83;3.27;;;14.30;57.30;;;;;;5016186;28;20180;-76
2021/04/16 14:15:48;;;;;;;3.93;3.30;;;14.30;53.50;;;;;;5014880;28;20184;-77
2021/04/16 14:18:26;;;;;;;3.93;3.57;;;13.00;55.20;;;;;;5014723;28;20211;-76
2021/04/16 14:20:52;;;;;;;4.73;4.03;;;11.60;55.60;;;;;;5014867;28;20158;-76
2021/04/16 14:23:19;;;;;;;3.67;3.37;;;10.70;57.10;;;;;;5013693;28;20233;-76
2021/04/16 14:25:46;;;;;;;3.97;3.57;;;11.60;57.50;;;;;;5013372;28;20176;-77
2021/04/16 14:28:14;;;;;;;4.50;3.43;;;11.30;57.50;;;;;;5014809;28;20230;-77
2021/04/16 14:30:41;;;;;;;4.03;3.53;;;10.60;57.80;;;;;;5014702;28;20626;-76
2021/04/16 14:33:19;;;;;;;5.03;3.70;;;10.00;58.60;;;;;;5013350;28;20629;-76
2021/04/16 14:35:44;;;;;;;3.60;3.30;;;9.40;63.70;;;;;;5014426;28;20613;-76
2021/04/16 14:38:10;;;;;;;5.97;4.33;;;8.90;67.60;;;;;;5014439;28;20201;-77
2021/04/16 14:40:36;;;;;;;8.87;3.90;;;8.70;65.80;;;;;;5014646;28;20217;-76
2021/04/16 14:43:04;;;;;;;6.17;3.67;;;8.20;67.90;;;;;;5013063;28;20175;-76
2021/04/16 14:45:34;;;;;;;4.20;3.80;;;10.20;64.60;;;;;;5014400;28;20175;-76
2021/04/16 14:48:00;;;;;;;6.90;3.57;;;11.50;57.50;;;;;;5014403;28;20196;-76
2021/04/16 14:50:28;;;;;;;6.80;3.70;;;11.60;58.60;;;;;;5014100;28;20664;-76
2021/04/16 14:52:56;;;;;;;7.20;3.70;;;12.40;58.10;;;;;;5014036;28;20586;-76
2021/04/16 14:55:26;;;;;;;6.47;3.23;;;12.50;56.00;;;;;;5014186;28;20198;-76
2021/04/16 14:57:53;;;;;;;3.97;3.30;;;13.00;57.50;;;;;;5013955;28;20213;-77
2021/04/16 15:00:24;;;;;;;4.97;3.10;;;13.20;54.50;;;;;;5014294;28;20479;-76
2021/04/16 15:02:50;;;;;;;3.67;3.37;;;12.90;56.40;;;;;;5014420;28;20193;-76
2021/04/16 15:05:18;;;;;;;3.93;3.53;;;12.70;54.80;;;;;;5013829;28;20664;-76
2021/04/16 15:08:26;;;;;;;4.10;3.60;;;13.00;54.20;;;;;;5014033;28;20737;-77
2021/04/16 15:11:03;;;;;;;4.60;4.00;;;12.10;54.70;;;;;;4975849;28;20249;-77
2021/04/16 15:13:30;;;;;;;4.03;3.23;;;12.20;55.70;;;;;;5014290;28;20620;-76